Terminal Aerodrome Forecast
Issued by NWS Cleveland, OH

Home | Current Version | Previous Version | Graphics & Text | Print | Product List | Glossary On
Versions: 1 2 3 4 5 6 7 8 9 10 11 12 13 14 15 16 17 18 19
000
FTUS41 KCLE 301900 AAA
TAFCAK
TAF AMD
KCAK 301957Z 3020/3118 32015KT 2SM -SHSN BLSN OVC020
     FM302200 31015KT 4SM -SHSN OVC025
     FM310000 32008KT P6SM SCT025 BKN035
     FM310700 20005KT P6SM BKN150=

USA.gov is the U.S. government's official web portal to all federal, state and local government web resources and services.